Airfield :
LOGIN :

Register | Disclaimer

   EN    FR    IT 

 










Legend :    VFR   Marginal VFR   IFR   Intensive IFR   Very Intensive IFR
Visi :
Ceiling :
>= 8 km
>= 3000ft
5 to 8 km
1000 to 3000 ft
1500m to 5 km
500 to 1000 ft
800 to 1500m
200 to 500 ft
< 800m
< 200 ft
Symbols :   Thunderstorms  Fog  Heavy snow  Heavy precipitations  Wind > 20 kt
SIGMETs :     Misc.  Thunderstorms  Icing  Turbulence  Mountain Waves  Volcanic Ashes






- Airport Elevation : 157 ft
- IATA code : LIL


LFQQ - Lille Lesquin

CURRENT METAR :
  • 151000Z AUTO 24012KT 200V270 9999 SCT034/// BKN041/// //////CB 24/15 Q1004 BECMG NSC

EXPIRED METARs :
  • 150930Z AUTO 22011KT 9999 SCT032 SCT040 24/15 Q1004 NOSIG
  • 150900Z AUTO 22010KT 190V260 9999 FEW030 SCT043 BKN066 24/16 Q1004 NOSIG
  • 150830Z AUTO 24010KT 210V270 9999 SCT027 SCT034 BKN064 24/16 Q1004 NOSIG
  • 150800Z AUTO 20007KT 150V250 9999 FEW024 23/16 Q1004 NOSIG
  • 150730Z AUTO 20007KT 160V240 CAVOK 23/17 Q1004 NOSIG

TAF TAF LFQQ
Valid from the 15 at 06:00 until the 16 at 12:00 UTC


150500Z 1506/1612 VRB03KT CAVOK
BECMG 1506/1508 21010KT
PROB30 1515/1519 VRB15G25KT 3000 TSRA BKN050CB
ATIS : +33 3 20 16 19 54



MET'MAP, your aeronautical weather chart ! - Copyright ORBIFLY December 2007 - Disclaimer

ORBIFLY MET'MAP TEAM :

Programming & Development : Alexandra Zaïnal
Original concept : Baudouin d'Aumeries
Technical & hardware support : Manuel Goepfert
Assistance : Marc-Olivier Méhu




SOURCES & CREDITS :

   NOAA